sensor_id;sensor_type;location;lat;lon;timestamp;temperature;humidity
10583;DHT22;33679;51.218;6.786;2024-03-08T00:00:36;9.30;99.90
10583;DHT22;33679;51.218;6.786;2024-03-08T00:03:09;9.30;99.90
10583;DHT22;33679;51.218;6.786;2024-03-08T00:05:42;9.30;99.90
10583;DHT22;33679;51.218;6.786;2024-03-08T00:08:14;9.20;99.90
10583;DHT22;33679;51.218;6.786;2024-03-08T00:10:49;9.20;99.90
10583;DHT22;33679;51.218;6.786;2024-03-08T00:13:22;9.20;99.90
10583;DHT22;33679;51.218;6.786;2024-03-08T00:15:56;9.20;99.90
10583;DHT22;33679;51.218;6.786;2024-03-08T00:18:29;9.30;99.90
10583;DHT22;33679;51.218;6.786;2024-03-08T00:21:02;9.20;99.90
10583;DHT22;33679;51.218;6.786;2024-03-08T00:23:35;9.20;99.90
10583;DHT22;33679;51.218;6.786;2024-03-08T00:26:12;9.20;99.90
10583;DHT22;33679;51.218;6.786;2024-03-08T00:28:44;9.20;99.90
10583;DHT22;33679;51.218;6.786;2024-03-08T00:31:19;9.20;99.90
10583;DHT22;33679;51.218;6.786;2024-03-08T00:33:52;9.20;99.90
10583;DHT22;33679;51.218;6.786;2024-03-08T00:36:24;9.20;99.90
10583;DHT22;33679;51.218;6.786;2024-03-08T00:39:02;9.20;99.90
10583;DHT22;33679;51.218;6.786;2024-03-08T00:41:38;9.20;99.90
10583;DHT22;33679;51.218;6.786;2024-03-08T00:44:19;9.20;99.90
10583;DHT22;33679;51.218;6.786;2024-03-08T00:46:52;9.10;99.90
10583;DHT22;33679;51.218;6.786;2024-03-08T00:49:24;9.10;99.90
10583;DHT22;33679;51.218;6.786;2024-03-08T00:51:58;9.10;99.90
10583;DHT22;33679;51.218;6.786;2024-03-08T00:54:31;9.10;99.90
10583;DHT22;33679;51.218;6.786;2024-03-08T00:57:05;9.10;99.90
10583;DHT22;33679;51.218;6.786;2024-03-08T00:59:38;9.10;99.90
10583;DHT22;33679;51.218;6.786;2024-03-08T01:02:10;9.00;99.90
10583;DHT22;33679;51.218;6.786;2024-03-08T01:04:43;9.00;99.90
10583;DHT22;33679;51.218;6.786;2024-03-08T01:07:18;8.90;99.90
10583;DHT22;33679;51.218;6.786;2024-03-08T01:09:51;8.90;99.90
10583;DHT22;33679;51.218;6.786;2024-03-08T01:12:24;8.90;99.90
10583;DHT22;33679;51.218;6.786;2024-03-08T01:14:56;8.90;99.90
10583;DHT22;33679;51.218;6.786;2024-03-08T01:17:29;8.90;99.90
10583;DHT22;33679;51.218;6.786;2024-03-08T01:20:03;8.80;99.90
10583;DHT22;33679;51.218;6.786;2024-03-08T01:22:40;8.80;99.90
10583;DHT22;33679;51.218;6.786;2024-03-08T01:25:13;8.80;99.90
10583;DHT22;33679;51.218;6.786;2024-03-08T01:27:49;8.80;99.90
10583;DHT22;33679;51.218;6.786;2024-03-08T01:30:21;8.80;99.90
10583;DHT22;33679;51.218;6.786;2024-03-08T01:32:54;8.70;99.90
10583;DHT22;33679;51.218;6.786;2024-03-08T01:35:27;8.70;99.90
10583;DHT22;33679;51.218;6.786;2024-03-08T01:38:00;8.70;99.90
10583;DHT22;33679;51.218;6.786;2024-03-08T01:40:32;8.70;99.90
10583;DHT22;33679;51.218;6.786;2024-03-08T01:43:21;8.70;99.90
10583;DHT22;33679;51.218;6.786;2024-03-08T01:45:54;8.60;99.90
10583;DHT22;33679;51.218;6.786;2024-03-08T01:48:27;8.60;99.90
10583;DHT22;33679;51.218;6.786;2024-03-08T01:51:01;8.60;99.90
10583;DHT22;33679;51.218;6.786;2024-03-08T01:53:35;8.60;99.90
10583;DHT22;33679;51.218;6.786;2024-03-08T01:56:08;8.50;99.90
10583;DHT22;33679;51.218;6.786;2024-03-08T01:58:42;8.50;99.90
10583;DHT22;33679;51.218;6.786;2024-03-08T02:01:18;8.50;99.90
10583;DHT22;33679;51.218;6.786;2024-03-08T02:03:54;8.50;99.90
10583;DHT22;33679;51.218;6.786;2024-03-08T02:06:26;8.50;99.90
10583;DHT22;33679;51.218;6.786;2024-03-08T02:08:59;8.40;99.90
10583;DHT22;33679;51.218;6.786;2024-03-08T02:11:40;8.50;99.90
10583;DHT22;33679;51.218;6.786;2024-03-08T02:14:14;8.50;99.90
10583;DHT22;33679;51.218;6.786;2024-03-08T02:16:47;8.50;99.90
10583;DHT22;33679;51.218;6.786;2024-03-08T02:19:24;8.40;99.90
10583;DHT22;33679;51.218;6.786;2024-03-08T02:22:00;8.40;99.90
10583;DHT22;33679;51.218;6.786;2024-03-08T02:24:35;8.40;99.90
10583;DHT22;33679;51.218;6.786;2024-03-08T02:27:08;8.40;99.90
10583;DHT22;33679;51.218;6.786;2024-03-08T02:29:43;8.30;99.90
10583;DHT22;33679;51.218;6.786;2024-03-08T02:32:17;8.30;99.90
10583;DHT22;33679;51.218;6.786;2024-03-08T02:34:50;8.30;99.90
10583;DHT22;33679;51.218;6.786;2024-03-08T02:37:23;8.30;99.90
10583;DHT22;33679;51.218;6.786;2024-03-08T02:39:57;8.30;99.90
10583;DHT22;33679;51.218;6.786;2024-03-08T02:42:30;8.30;99.90
10583;DHT22;33679;51.218;6.786;2024-03-08T02:45:06;8.30;99.90
10583;DHT22;33679;51.218;6.786;2024-03-08T02:47:41;8.30;99.90
10583;DHT22;33679;51.218;6.786;2024-03-08T02:50:15;8.30;99.90
10583;DHT22;33679;51.218;6.786;2024-03-08T02:52:52;8.30;99.90
10583;DHT22;33679;51.218;6.786;2024-03-08T02:55:25;8.30;99.90
10583;DHT22;33679;51.218;6.786;2024-03-08T02:57:57;8.30;99.90
10583;DHT22;33679;51.218;6.786;2024-03-08T03:00:30;8.30;99.90
10583;DHT22;33679;51.218;6.786;2024-03-08T03:03:04;8.30;99.90
10583;DHT22;33679;51.218;6.786;2024-03-08T03:05:37;8.30;99.90
10583;DHT22;33679;51.218;6.786;2024-03-08T03:08:13;8.30;99.90
10583;DHT22;33679;51.218;6.786;2024-03-08T03:10:47;8.30;99.90
10583;DHT22;33679;51.218;6.786;2024-03-08T03:13:21;8.30;99.90
10583;DHT22;33679;51.218;6.786;2024-03-08T03:15:53;8.40;99.90
10583;DHT22;33679;51.218;6.786;2024-03-08T03:18:28;8.40;99.90
10583;DHT22;33679;51.218;6.786;2024-03-08T03:21:02;8.40;99.90
10583;DHT22;33679;51.218;6.786;2024-03-08T03:23:39;8.40;99.90
10583;DHT22;33679;51.218;6.786;2024-03-08T03:26:13;8.40;99.90
10583;DHT22;33679;51.218;6.786;2024-03-08T03:28:48;8.40;99.90
10583;DHT22;33679;51.218;6.786;2024-03-08T03:31:22;8.40;99.90
10583;DHT22;33679;51.218;6.786;2024-03-08T03:33:57;8.30;99.90
10583;DHT22;33679;51.218;6.786;2024-03-08T03:36:32;8.30;99.90
10583;DHT22;33679;51.218;6.786;2024-03-08T03:39:08;8.30;99.90
10583;DHT22;33679;51.218;6.786;2024-03-08T03:41:43;8.30;99.90
10583;DHT22;33679;51.218;6.786;2024-03-08T03:44:17;8.40;99.90
10583;DHT22;33679;51.218;6.786;2024-03-08T03:46:49;8.40;99.90
10583;DHT22;33679;51.218;6.786;2024-03-08T03:49:23;8.30;99.90
10583;DHT22;33679;51.218;6.786;2024-03-08T03:51:55;8.30;99.90
10583;DHT22;33679;51.218;6.786;2024-03-08T03:54:31;8.30;99.90
10583;DHT22;33679;51.218;6.786;2024-03-08T03:57:05;8.30;99.90
10583;DHT22;33679;51.218;6.786;2024-03-08T03:59:39;8.30;99.90
10583;DHT22;33679;51.218;6.786;2024-03-08T04:02:12;8.30;99.90
10583;DHT22;33679;51.218;6.786;2024-03-08T04:04:45;8.30;99.90
10583;DHT22;33679;51.218;6.786;2024-03-08T04:07:18;8.30;99.90
10583;DHT22;33679;51.218;6.786;2024-03-08T04:09:54;8.20;99.90
10583;DHT22;33679;51.218;6.786;2024-03-08T04:12:27;8.20;99.90
10583;DHT22;33679;51.218;6.786;2024-03-08T04:15:01;8.20;99.90
10583;DHT22;33679;51.218;6.786;2024-03-08T04:17:33;8.20;99.90
10583;DHT22;33679;51.218;6.786;2024-03-08T04:20:08;8.20;99.90
10583;DHT22;33679;51.218;6.786;2024-03-08T04:22:41;8.20;99.90
10583;DHT22;33679;51.218;6.786;2024-03-08T04:25:16;8.20;99.90
10583;DHT22;33679;51.218;6.786;2024-03-08T04:27:48;8.20;99.90
10583;DHT22;33679;51.218;6.786;2024-03-08T04:30:20;8.20;99.90
10583;DHT22;33679;51.218;6.786;2024-03-08T04:32:53;8.20;99.90
10583;DHT22;33679;51.218;6.786;2024-03-08T04:35:26;8.20;99.90
10583;DHT22;33679;51.218;6.786;2024-03-08T04:37:58;8.20;99.90
10583;DHT22;33679;51.218;6.786;2024-03-08T04:40:32;8.20;99.90
10583;DHT22;33679;51.218;6.786;2024-03-08T04:43:09;8.20;99.90
10583;DHT22;33679;51.218;6.786;2024-03-08T04:45:41;8.20;99.90
10583;DHT22;33679;51.218;6.786;2024-03-08T04:48:14;8.10;99.90
10583;DHT22;33679;51.218;6.786;2024-03-08T04:50:47;8.10;99.90
10583;DHT22;33679;51.218;6.786;2024-03-08T04:53:19;8.10;99.90
10583;DHT22;33679;51.218;6.786;2024-03-08T04:55:53;8.10;99.90
10583;DHT22;33679;51.218;6.786;2024-03-08T04:58:25;8.10;99.90
10583;DHT22;33679;51.218;6.786;2024-03-08T05:00:58;8.10;99.90
10583;DHT22;33679;51.218;6.786;2024-03-08T05:03:30;8.10;99.90
10583;DHT22;33679;51.218;6.786;2024-03-08T05:06:02;8.10;99.90
10583;DHT22;33679;51.218;6.786;2024-03-08T05:08:35;8.10;99.90
10583;DHT22;33679;51.218;6.786;2024-03-08T05:11:08;8.10;99.90
10583;DHT22;33679;51.218;6.786;2024-03-08T05:13:41;8.10;99.90
10583;DHT22;33679;51.218;6.786;2024-03-08T05:16:14;8.10;99.90
10583;DHT22;33679;51.218;6.786;2024-03-08T05:18:48;8.10;99.90
10583;DHT22;33679;51.218;6.786;2024-03-08T05:21:20;8.10;99.90
10583;DHT22;33679;51.218;6.786;2024-03-08T05:23:52;8.10;99.90
10583;DHT22;33679;51.218;6.786;2024-03-08T05:26:26;8.10;99.90
10583;DHT22;33679;51.218;6.786;2024-03-08T05:29:01;8.10;99.90
10583;DHT22;33679;51.218;6.786;2024-03-08T05:31:43;8.10;99.90
10583;DHT22;33679;51.218;6.786;2024-03-08T05:34:18;8.10;99.90
10583;DHT22;33679;51.218;6.786;2024-03-08T05:36:50;8.10;99.90
10583;DHT22;33679;51.218;6.786;2024-03-08T05:39:22;8.10;99.90
10583;DHT22;33679;51.218;6.786;2024-03-08T05:41:58;8.10;99.90
10583;DHT22;33679;51.218;6.786;2024-03-08T05:44:31;8.10;99.90
10583;DHT22;33679;51.218;6.786;2024-03-08T05:47:07;8.10;99.90
10583;DHT22;33679;51.218;6.786;2024-03-08T05:49:40;8.10;99.90
10583;DHT22;33679;51.218;6.786;2024-03-08T05:52:12;8.10;99.90
10583;DHT22;33679;51.218;6.786;2024-03-08T05:54:45;8.10;99.90
10583;DHT22;33679;51.218;6.786;2024-03-08T05:57:19;8.00;99.90
10583;DHT22;33679;51.218;6.786;2024-03-08T05:59:53;8.10;99.90
10583;DHT22;33679;51.218;6.786;2024-03-08T06:02:26;8.10;99.90
10583;DHT22;33679;51.218;6.786;2024-03-08T06:04:59;8.10;99.90
10583;DHT22;33679;51.218;6.786;2024-03-08T06:07:33;8.10;99.90
10583;DHT22;33679;51.218;6.786;2024-03-08T06:10:06;8.20;99.90
10583;DHT22;33679;51.218;6.786;2024-03-08T06:12:42;8.20;99.90
10583;DHT22;33679;51.218;6.786;2024-03-08T06:15:14;8.20;99.90
10583;DHT22;33679;51.218;6.786;2024-03-08T06:17:49;8.20;99.90
10583;DHT22;33679;51.218;6.786;2024-03-08T06:20:24;8.20;99.90
10583;DHT22;33679;51.218;6.786;2024-03-08T06:22:57;8.20;99.90
10583;DHT22;33679;51.218;6.786;2024-03-08T06:25:31;8.30;99.90
10583;DHT22;33679;51.218;6.786;2024-03-08T06:28:07;8.30;99.90
10583;DHT22;33679;51.218;6.786;2024-03-08T06:30:39;8.30;99.90
10583;DHT22;33679;51.218;6.786;2024-03-08T06:33:11;8.30;99.90
10583;DHT22;33679;51.218;6.786;2024-03-08T06:35:44;8.40;99.90
10583;DHT22;33679;51.218;6.786;2024-03-08T06:38:17;8.40;99.90
10583;DHT22;33679;51.218;6.786;2024-03-08T06:40:50;8.40;99.90
10583;DHT22;33679;51.218;6.786;2024-03-08T06:43:24;8.40;99.90
10583;DHT22;33679;51.218;6.786;2024-03-08T06:46:04;8.40;99.90
10583;DHT22;33679;51.218;6.786;2024-03-08T06:48:37;8.40;99.90
10583;DHT22;33679;51.218;6.786;2024-03-08T06:51:09;8.30;99.90
10583;DHT22;33679;51.218;6.786;2024-03-08T06:53:43;8.30;99.90
10583;DHT22;33679;51.218;6.786;2024-03-08T06:56:15;8.30;99.90
10583;DHT22;33679;51.218;6.786;2024-03-08T06:58:51;8.30;99.90
10583;DHT22;33679;51.218;6.786;2024-03-08T07:01:26;8.30;99.90
10583;DHT22;33679;51.218;6.786;2024-03-08T07:04:02;8.30;99.90
10583;DHT22;33679;51.218;6.786;2024-03-08T07:06:36;8.30;99.90
10583;DHT22;33679;51.218;6.786;2024-03-08T07:09:08;8.30;99.90
10583;DHT22;33679;51.218;6.786;2024-03-08T07:11:41;8.30;99.90
10583;DHT22;33679;51.218;6.786;2024-03-08T07:14:15;8.40;99.90
10583;DHT22;33679;51.218;6.786;2024-03-08T07:16:47;8.40;99.90
10583;DHT22;33679;51.218;6.786;2024-03-08T07:19:20;8.40;99.90
10583;DHT22;33679;51.218;6.786;2024-03-08T07:21:52;8.40;99.90
10583;DHT22;33679;51.218;6.786;2024-03-08T07:24:26;8.40;99.90
10583;DHT22;33679;51.218;6.786;2024-03-08T07:27:10;8.50;99.90
10583;DHT22;33679;51.218;6.786;2024-03-08T07:29:46;8.50;99.90
10583;DHT22;33679;51.218;6.786;2024-03-08T07:32:20;8.50;99.90
10583;DHT22;33679;51.218;6.786;2024-03-08T07:34:52;8.50;99.90
10583;DHT22;33679;51.218;6.786;2024-03-08T07:37:26;8.50;99.90
10583;DHT22;33679;51.218;6.786;2024-03-08T07:39:59;8.60;99.90
10583;DHT22;33679;51.218;6.786;2024-03-08T07:42:31;8.70;99.90
10583;DHT22;33679;51.218;6.786;2024-03-08T07:45:07;8.70;99.90
10583;DHT22;33679;51.218;6.786;2024-03-08T07:47:40;8.80;99.90
10583;DHT22;33679;51.218;6.786;2024-03-08T07:50:13;8.80;99.90
10583;DHT22;33679;51.218;6.786;2024-03-08T07:52:50;8.80;99.90
10583;DHT22;33679;51.218;6.786;2024-03-08T07:55:24;8.80;99.90
10583;DHT22;33679;51.218;6.786;2024-03-08T07:57:57;8.80;99.90
10583;DHT22;33679;51.218;6.786;2024-03-08T08:00:31;8.90;99.90
10583;DHT22;33679;51.218;6.786;2024-03-08T08:03:04;8.90;99.90
10583;DHT22;33679;51.218;6.786;2024-03-08T08:05:36;9.00;99.90
10583;DHT22;33679;51.218;6.786;2024-03-08T08:08:11;9.00;99.90
10583;DHT22;33679;51.218;6.786;2024-03-08T08:10:43;9.10;99.90
10583;DHT22;33679;51.218;6.786;2024-03-08T08:13:17;9.00;99.90
10583;DHT22;33679;51.218;6.786;2024-03-08T08:15:54;9.10;99.90
10583;DHT22;33679;51.218;6.786;2024-03-08T08:18:28;9.20;99.90
10583;DHT22;33679;51.218;6.786;2024-03-08T08:21:01;9.20;99.90
10583;DHT22;33679;51.218;6.786;2024-03-08T08:23:34;9.30;99.90
10583;DHT22;33679;51.218;6.786;2024-03-08T08:26:06;9.40;99.90
10583;DHT22;33679;51.218;6.786;2024-03-08T08:28:44;9.40;99.90
10583;DHT22;33679;51.218;6.786;2024-03-08T08:31:20;9.50;99.90
10583;DHT22;33679;51.218;6.786;2024-03-08T08:33:52;9.60;99.90
10583;DHT22;33679;51.218;6.786;2024-03-08T08:36:29;9.60;99.90
10583;DHT22;33679;51.218;6.786;2024-03-08T08:39:00;9.70;99.90
10583;DHT22;33679;51.218;6.786;2024-03-08T08:41:36;9.70;99.90
10583;DHT22;33679;51.218;6.786;2024-03-08T08:44:08;9.80;99.90
10583;DHT22;33679;51.218;6.786;2024-03-08T08:46:45;9.90;99.90
10583;DHT22;33679;51.218;6.786;2024-03-08T08:49:18;9.90;99.90
10583;DHT22;33679;51.218;6.786;2024-03-08T08:51:52;9.90;99.90
10583;DHT22;33679;51.218;6.786;2024-03-08T08:54:25;10.10;99.90
10583;DHT22;33679;51.218;6.786;2024-03-08T08:56:59;10.10;99.90
10583;DHT22;33679;51.218;6.786;2024-03-08T08:59:39;10.10;99.90
10583;DHT22;33679;51.218;6.786;2024-03-08T09:02:16;10.20;99.90
10583;DHT22;33679;51.218;6.786;2024-03-08T09:04:51;10.30;99.90
10583;DHT22;33679;51.218;6.786;2024-03-08T09:07:26;10.40;99.90
10583;DHT22;33679;51.218;6.786;2024-03-08T09:09:59;10.40;99.90
10583;DHT22;33679;51.218;6.786;2024-03-08T09:12:32;10.50;99.90
10583;DHT22;33679;51.218;6.786;2024-03-08T09:15:05;10.60;99.90
10583;DHT22;33679;51.218;6.786;2024-03-08T09:17:40;10.60;99.90
10583;DHT22;33679;51.218;6.786;2024-03-08T09:20:14;10.70;99.90
10583;DHT22;33679;51.218;6.786;2024-03-08T09:22:46;10.70;99.90
10583;DHT22;33679;51.218;6.786;2024-03-08T09:25:21;10.80;99.90
10583;DHT22;33679;51.218;6.786;2024-03-08T09:27:55;10.80;99.90
10583;DHT22;33679;51.218;6.786;2024-03-08T09:30:28;10.80;99.90
10583;DHT22;33679;51.218;6.786;2024-03-08T09:33:04;10.80;99.90
10583;DHT22;33679;51.218;6.786;2024-03-08T09:35:37;10.90;99.90
10583;DHT22;33679;51.218;6.786;2024-03-08T09:38:09;10.90;99.90
10583;DHT22;33679;51.218;6.786;2024-03-08T09:40:44;11.00;99.90
10583;DHT22;33679;51.218;6.786;2024-03-08T09:43:17;11.10;99.90
10583;DHT22;33679;51.218;6.786;2024-03-08T09:45:50;11.10;99.90
10583;DHT22;33679;51.218;6.786;2024-03-08T09:48:28;11.10;99.90
10583;DHT22;33679;51.218;6.786;2024-03-08T09:51:02;11.10;99.90
10583;DHT22;33679;51.218;6.786;2024-03-08T09:53:35;11.10;99.90
10583;DHT22;33679;51.218;6.786;2024-03-08T09:56:09;11.10;99.90
10583;DHT22;33679;51.218;6.786;2024-03-08T09:58:43;11.20;99.90
10583;DHT22;33679;51.218;6.786;2024-03-08T10:01:47;11.20;99.90
10583;DHT22;33679;51.218;6.786;2024-03-08T10:04:24;11.30;99.90
10583;DHT22;33679;51.218;6.786;2024-03-08T10:06:58;11.30;99.90
10583;DHT22;33679;51.218;6.786;2024-03-08T10:09:30;11.30;99.90
10583;DHT22;33679;51.218;6.786;2024-03-08T10:12:05;11.40;99.90
10583;DHT22;33679;51.218;6.786;2024-03-08T10:14:40;11.60;99.90
10583;DHT22;33679;51.218;6.786;2024-03-08T10:17:13;11.60;99.90
10583;DHT22;33679;51.218;6.786;2024-03-08T10:19:53;11.60;99.90
10583;DHT22;33679;51.218;6.786;2024-03-08T10:22:29;11.70;99.90
10583;DHT22;33679;51.218;6.786;2024-03-08T10:25:03;11.70;99.90
10583;DHT22;33679;51.218;6.786;2024-03-08T10:27:38;11.70;99.90
10583;DHT22;33679;51.218;6.786;2024-03-08T10:30:15;11.70;99.90
10583;DHT22;33679;51.218;6.786;2024-03-08T10:32:52;11.70;99.90
10583;DHT22;33679;51.218;6.786;2024-03-08T10:35:27;11.70;99.90
10583;DHT22;33679;51.218;6.786;2024-03-08T10:38:01;11.70;99.90
10583;DHT22;33679;51.218;6.786;2024-03-08T10:40:41;11.70;99.90
10583;DHT22;33679;51.218;6.786;2024-03-08T10:43:22;11.80;99.90
10583;DHT22;33679;51.218;6.786;2024-03-08T10:46:08;11.80;99.90
10583;DHT22;33679;51.218;6.786;2024-03-08T10:48:45;11.80;99.90
10583;DHT22;33679;51.218;6.786;2024-03-08T10:51:24;11.80;99.90
10583;DHT22;33679;51.218;6.786;2024-03-08T10:53:59;11.80;99.90
10583;DHT22;33679;51.218;6.786;2024-03-08T10:56:35;11.90;99.90
10583;DHT22;33679;51.218;6.786;2024-03-08T10:59:08;12.00;99.90
10583;DHT22;33679;51.218;6.786;2024-03-08T11:01:45;12.10;99.90
10583;DHT22;33679;51.218;6.786;2024-03-08T11:04:19;12.10;99.90
10583;DHT22;33679;51.218;6.786;2024-03-08T11:07:00;12.10;99.90
10583;DHT22;33679;51.218;6.786;2024-03-08T11:09:38;12.10;99.90
10583;DHT22;33679;51.218;6.786;2024-03-08T11:12:20;12.20;99.90
10583;DHT22;33679;51.218;6.786;2024-03-08T11:14:55;12.30;99.90
10583;DHT22;33679;51.218;6.786;2024-03-08T11:17:48;12.30;99.90
10583;DHT22;33679;51.218;6.786;2024-03-08T11:20:23;12.40;99.90
10583;DHT22;33679;51.218;6.786;2024-03-08T11:23:04;12.50;99.90
10583;DHT22;33679;51.218;6.786;2024-03-08T11:25:37;12.50;99.90
10583;DHT22;33679;51.218;6.786;2024-03-08T11:28:14;12.50;99.90
10583;DHT22;33679;51.218;6.786;2024-03-08T11:33:50;12.50;99.90
10583;DHT22;33679;51.218;6.786;2024-03-08T11:36:24;12.60;99.90
10583;DHT22;33679;51.218;6.786;2024-03-08T11:38:59;12.60;99.90
10583;DHT22;33679;51.218;6.786;2024-03-08T11:41:41;12.60;99.90
10583;DHT22;33679;51.218;6.786;2024-03-08T11:44:17;12.70;99.90
10583;DHT22;33679;51.218;6.786;2024-03-08T11:47:11;12.80;99.90
10583;DHT22;33679;51.218;6.786;2024-03-08T11:49:45;12.90;99.90
10583;DHT22;33679;51.218;6.786;2024-03-08T11:52:19;13.00;99.90
10583;DHT22;33679;51.218;6.786;2024-03-08T11:54:54;13.00;99.90
10583;DHT22;33679;51.218;6.786;2024-03-08T11:57:27;13.10;99.90
10583;DHT22;33679;51.218;6.786;2024-03-08T12:00:03;13.10;99.90
10583;DHT22;33679;51.218;6.786;2024-03-08T12:02:41;13.10;99.90
10583;DHT22;33679;51.218;6.786;2024-03-08T12:05:24;13.10;99.90
10583;DHT22;33679;51.218;6.786;2024-03-08T12:07:59;13.20;99.90
10583;DHT22;33679;51.218;6.786;2024-03-08T12:10:33;13.30;99.90
10583;DHT22;33679;51.218;6.786;2024-03-08T12:13:09;13.30;99.90
10583;DHT22;33679;51.218;6.786;2024-03-08T12:15:47;13.30;99.90
10583;DHT22;33679;51.218;6.786;2024-03-08T12:18:20;13.30;99.90
10583;DHT22;33679;51.218;6.786;2024-03-08T12:21:03;13.30;99.90
10583;DHT22;33679;51.218;6.786;2024-03-08T12:23:39;13.40;99.90
10583;DHT22;33679;51.218;6.786;2024-03-08T12:26:15;13.40;99.90
10583;DHT22;33679;51.218;6.786;2024-03-08T12:28:48;13.40;99.90
10583;DHT22;33679;51.218;6.786;2024-03-08T12:31:22;13.50;99.90
10583;DHT22;33679;51.218;6.786;2024-03-08T12:34:00;13.50;99.90
10583;DHT22;33679;51.218;6.786;2024-03-08T12:36:34;13.60;99.90
10583;DHT22;33679;51.218;6.786;2024-03-08T12:39:07;13.60;99.90
10583;DHT22;33679;51.218;6.786;2024-03-08T12:41:46;13.70;99.90
10583;DHT22;33679;51.218;6.786;2024-03-08T12:44:20;13.80;99.90
10583;DHT22;33679;51.218;6.786;2024-03-08T12:46:53;13.90;99.90
10583;DHT22;33679;51.218;6.786;2024-03-08T12:49:27;14.00;99.90
10583;DHT22;33679;51.218;6.786;2024-03-08T12:51:59;14.00;99.90
10583;DHT22;33679;51.218;6.786;2024-03-08T12:54:31;14.00;99.90
10583;DHT22;33679;51.218;6.786;2024-03-08T12:57:07;14.00;99.90
10583;DHT22;33679;51.218;6.786;2024-03-08T12:59:41;14.00;99.90
10583;DHT22;33679;51.218;6.786;2024-03-08T13:02:13;14.00;99.90
10583;DHT22;33679;51.218;6.786;2024-03-08T13:04:50;14.10;99.90
10583;DHT22;33679;51.218;6.786;2024-03-08T13:07:28;14.00;99.90
10583;DHT22;33679;51.218;6.786;2024-03-08T13:10:03;14.00;99.90
10583;DHT22;33679;51.218;6.786;2024-03-08T13:12:39;14.00;99.90
10583;DHT22;33679;51.218;6.786;2024-03-08T13:15:12;14.10;99.90
10583;DHT22;33679;51.218;6.786;2024-03-08T13:17:51;14.00;99.90
10583;DHT22;33679;51.218;6.786;2024-03-08T13:20:28;14.10;99.90
10583;DHT22;33679;51.218;6.786;2024-03-08T13:23:03;14.10;99.90
10583;DHT22;33679;51.218;6.786;2024-03-08T13:25:36;14.20;99.90
10583;DHT22;33679;51.218;6.786;2024-03-08T13:28:12;14.10;99.90
10583;DHT22;33679;51.218;6.786;2024-03-08T13:30:50;14.10;99.90
10583;DHT22;33679;51.218;6.786;2024-03-08T13:33:25;14.00;99.90
10583;DHT22;33679;51.218;6.786;2024-03-08T13:36:01;14.00;99.90
10583;DHT22;33679;51.218;6.786;2024-03-08T13:38:35;14.00;99.90
10583;DHT22;33679;51.218;6.786;2024-03-08T13:41:08;14.00;99.90
10583;DHT22;33679;51.218;6.786;2024-03-08T13:43:43;14.00;99.90
10583;DHT22;33679;51.218;6.786;2024-03-08T13:46:18;14.10;99.90
10583;DHT22;33679;51.218;6.786;2024-03-08T13:48:51;14.20;99.90
10583;DHT22;33679;51.218;6.786;2024-03-08T13:51:33;14.20;99.90
10583;DHT22;33679;51.218;6.786;2024-03-08T13:54:07;14.30;99.90
10583;DHT22;33679;51.218;6.786;2024-03-08T13:56:43;14.30;99.90
10583;DHT22;33679;51.218;6.786;2024-03-08T13:59:18;14.30;99.90
10583;DHT22;33679;51.218;6.786;2024-03-08T14:01:56;14.40;99.90
10583;DHT22;33679;51.218;6.786;2024-03-08T14:04:31;14.50;99.90
10583;DHT22;33679;51.218;6.786;2024-03-08T14:07:10;14.50;99.90
10583;DHT22;33679;51.218;6.786;2024-03-08T14:09:57;14.60;99.90
10583;DHT22;33679;51.218;6.786;2024-03-08T14:13:12;14.60;99.90
10583;DHT22;33679;51.218;6.786;2024-03-08T14:15:50;14.70;99.90
10583;DHT22;33679;51.218;6.786;2024-03-08T14:18:47;14.80;99.90
10583;DHT22;33679;51.218;6.786;2024-03-08T14:22:36;14.90;99.90
10583;DHT22;33679;51.218;6.786;2024-03-08T14:25:11;14.90;99.90
10583;DHT22;33679;51.218;6.786;2024-03-08T14:27:59;14.80;99.90
10583;DHT22;33679;51.218;6.786;2024-03-08T14:30:38;14.80;99.90
10583;DHT22;33679;51.218;6.786;2024-03-08T14:33:13;14.70;99.90
10583;DHT22;33679;51.218;6.786;2024-03-08T14:35:47;14.70;99.90
10583;DHT22;33679;51.218;6.786;2024-03-08T14:38:22;14.60;99.90
10583;DHT22;33679;51.218;6.786;2024-03-08T14:40:58;14.60;99.90
10583;DHT22;33679;51.218;6.786;2024-03-08T14:43:32;14.60;99.90
10583;DHT22;33679;51.218;6.786;2024-03-08T14:46:05;14.60;99.90
10583;DHT22;33679;51.218;6.786;2024-03-08T14:48:39;14.60;99.90
10583;DHT22;33679;51.218;6.786;2024-03-08T14:51:20;14.60;99.90
10583;DHT22;33679;51.218;6.786;2024-03-08T14:53:57;14.60;99.90
10583;DHT22;33679;51.218;6.786;2024-03-08T14:56:30;14.60;99.90
10583;DHT22;33679;51.218;6.786;2024-03-08T14:59:11;14.50;99.90
10583;DHT22;33679;51.218;6.786;2024-03-08T15:01:46;14.60;99.90
10583;DHT22;33679;51.218;6.786;2024-03-08T15:04:20;14.50;99.90
10583;DHT22;33679;51.218;6.786;2024-03-08T15:06:53;14.50;99.90
10583;DHT22;33679;51.218;6.786;2024-03-08T15:09:29;14.40;99.90
10583;DHT22;33679;51.218;6.786;2024-03-08T15:12:11;14.40;99.90
10583;DHT22;33679;51.218;6.786;2024-03-08T15:14:44;14.40;99.90
10583;DHT22;33679;51.218;6.786;2024-03-08T15:17:18;14.30;99.90
10583;DHT22;33679;51.218;6.786;2024-03-08T15:19:55;14.30;99.90
10583;DHT22;33679;51.218;6.786;2024-03-08T15:22:27;14.30;99.90
10583;DHT22;33679;51.218;6.786;2024-03-08T15:25:03;14.30;99.90
10583;DHT22;33679;51.218;6.786;2024-03-08T15:27:41;14.20;99.90
10583;DHT22;33679;51.218;6.786;2024-03-08T15:30:16;14.20;99.90
10583;DHT22;33679;51.218;6.786;2024-03-08T15:32:50;14.20;99.90
10583;DHT22;33679;51.218;6.786;2024-03-08T15:35:29;14.10;99.90
10583;DHT22;33679;51.218;6.786;2024-03-08T15:38:03;14.20;99.90
10583;DHT22;33679;51.218;6.786;2024-03-08T15:40:36;14.10;99.90
10583;DHT22;33679;51.218;6.786;2024-03-08T15:43:10;14.10;99.90
10583;DHT22;33679;51.218;6.786;2024-03-08T15:45:46;14.10;99.90
10583;DHT22;33679;51.218;6.786;2024-03-08T15:48:21;14.00;99.90
10583;DHT22;33679;51.218;6.786;2024-03-08T15:50:57;14.00;99.90
10583;DHT22;33679;51.218;6.786;2024-03-08T15:53:33;13.90;99.90
10583;DHT22;33679;51.218;6.786;2024-03-08T15:56:08;13.90;99.90
10583;DHT22;33679;51.218;6.786;2024-03-08T15:58:48;13.90;99.90
10583;DHT22;33679;51.218;6.786;2024-03-08T16:01:22;13.80;99.90
10583;DHT22;33679;51.218;6.786;2024-03-08T16:03:55;13.80;99.90
10583;DHT22;33679;51.218;6.786;2024-03-08T16:06:38;13.80;99.90
10583;DHT22;33679;51.218;6.786;2024-03-08T16:09:12;13.80;99.90
10583;DHT22;33679;51.218;6.786;2024-03-08T16:11:51;13.90;99.90
10583;DHT22;33679;51.218;6.786;2024-03-08T16:15:00;13.90;99.90
10583;DHT22;33679;51.218;6.786;2024-03-08T16:17:46;13.80;99.90
10583;DHT22;33679;51.218;6.786;2024-03-08T16:20:20;13.80;99.90
10583;DHT22;33679;51.218;6.786;2024-03-08T16:22:57;13.80;99.90
10583;DHT22;33679;51.218;6.786;2024-03-08T16:25:48;13.80;99.90
10583;DHT22;33679;51.218;6.786;2024-03-08T16:28:24;13.90;99.90
10583;DHT22;33679;51.218;6.786;2024-03-08T16:31:12;13.80;99.90
10583;DHT22;33679;51.218;6.786;2024-03-08T16:33:56;13.80;99.90